Latest Coastal Weather Observations for Yanakie

IDV60701

Issued at 11:31 pm EST Friday 3 July 2015 (issued every 10 minutes, with the page automatically refreshed every 10 minutes)

About coastal observations | Map of coastal stations | Coastal observations for VIC | Marine services | Other Formats
Station Details ID: 085301 Name: YANAKIE Lat: -38.81 Lon: 146.19 Height: 13.3 m
Data from the previous 72 hours. | See also: Recent months at Yanakie
Date/Time
EST
Temp

°C
Wind Pressure Rain
since 9am
mm
Weather Cloud Vis
km
Sea
Height
m
Swell
Dir
 
Speed
knots
Gust
knots
hPa Trend Height
m
Period
s
Dir
03/11:30pm 7.8 NW 10 14 1022.6 - - - - - - - - -
03/11:00pm 7.6 NW 11 15 1022.7 - - - - - - - - -
03/10:30pm 7.6 NW 10 13 1023.0 - - - - - - - - -
03/10:00pm 7.7 NNW 9 13 1023.2 - - - - - - - - -
03/09:30pm 7.8 NW 11 15 1023.7 - - - - - - - - -
03/09:00pm 7.5 WNW 9 12 1024.0 - 0.0 - - - - - - -
03/08:30pm 7.7 NW 9 12 1024.0 - - - - - - - - -
03/08:00pm 7.9 NW 10 15 1024.2 - - - - - - - - -
03/07:30pm 7.9 NW 8 11 1024.3 - - - - - - - - -
03/07:00pm 8.1 NW 9 12 1024.2 - - - - - - - - -
03/06:30pm 8.2 NW 8 12 1024.1 - - - - - - - - -
03/06:00pm 8.3 NW 10 13 1024.2 - - - - - - - - -
03/05:30pm 8.2 NW 8 11 1024.3 - - - - - - - - -
03/05:00pm 8.5 NW 7 11 1024.4 - - - - - - - - -
03/04:30pm 8.8 W 6 8 1024.6 - - - - - - - - -
03/04:00pm 9.0 WNW 10 15 1024.6 - - - - - - - - -
03/03:30pm 8.9 NW 9 12 1024.7 - - - - - - - - -
03/03:00pm 8.8 NW 11 15 1024.7 - - Recent precip. - - - - - -
03/02:30pm 8.5 WNW 10 15 1024.8 - - - - - - - - -
03/02:00pm 9.4 WNW 9 14 1025.0 - 0.4 - - - - - - -
03/01:30pm 8.5 W 10 16 1025.4 - 0.4 - - - - - - -
03/01:00pm 10.2 NW 10 13 1025.3 - 0.0 - - - - - - -
03/12:30pm 10.8 NW 11 14 1025.6 - 0.0 - - - - - - -
03/12:00pm 10.8 WNW 10 13 1026.2 - 0.0 - - - - - - -
03/11:30am 9.4 NW 12 17 1026.6 - 0.0 - - - - - - -
03/11:00am 9.9 NW 12 16 1027.1 - 0.0 - - - - - - -
03/10:30am 9.4 NW 12 15 1027.3 - 0.0 - - - - - - -
03/10:00am 9.4 NW 11 14 1027.2 - 0.0 - - - - - - -
03/09:30am 8.5 NNW 8 11 1027.1 - 0.0 - - - - - - -
03/09:00am 7.4 NW 9 13 1027.1 - 1.2 - - - - - - -
03/08:30am 7.3 NW 4 5 1026.8 - 1.2 - - - - - - -
03/08:00am 7.2 W 4 5 1026.8 - 1.2 - - - - - - -
03/07:30am 6.5 WNW 6 8 1026.7 - 1.2 - - - - - - -
03/07:00am 6.0 WNW 6 8 1026.4 - 1.2 - - - - - - -
03/06:30am 6.9 W 7 9 1026.3 - 1.2 - - - - - - -
03/06:00am 7.5 WNW 7 9 1026.3 - 1.2 - - - - - - -
03/05:30am 8.2 WNW 6 11 1026.1 - 1.2 - - - - - - -
03/05:00am 7.6 W 6 8 1025.9 - 1.2 - - - - - - -
03/04:30am 8.5 WSW 6 8 1025.9 - 1.2 - - - - - - -
03/04:00am 8.6 W 11 15 1026.2 - 1.2 - - - - - - -
03/03:30am 7.7 SW 9 11 1026.3 - 1.2 - - - - - - -
03/03:00am 8.7 SW 10 17 1026.7 - 1.2 - - - - - - -
03/02:30am 7.9 SW 9 13 1026.7 - 1.2 - - - - - - -
03/02:00am 8.2 SW 11 15 1026.6 - 1.2 - - - - - - -
03/01:30am 8.0 WSW 9 12 1026.5 - 1.2 - - - - - - -
03/01:00am 8.0 SW 11 15 1026.4 - 1.2 - - - - - - -
03/12:30am 8.6 SW 15 22 1026.7 - 1.2 - - - - - - -
03/12:00am 7.7 SW 12 16 1026.8 - 1.2 - - - - - - -
 
Date/Time
EST
Temp

°C
Wind Pressure Rain
since 9am
mm
Weather Cloud Vis
km
Sea
Height
m
Swell
Dir
 
Speed
knots
Gust
knots
hPa Trend Height
m
Period
s
Dir
02/11:30pm 8.2 SW 13 17 1026.9 - 1.2 - - - - - - -
02/11:00pm 7.6 SW 13 19 1026.9 - 1.2 - - - - - - -
02/10:30pm 8.6 SW 14 18 1026.7 - 1.0 - - - - - - -
02/10:00pm 9.1 WSW 13 18 1026.6 - 1.0 - - - - - - -
02/09:30pm 9.1 SW 15 20 1026.4 - 1.0 - - - - - - -
02/09:00pm 8.6 SW 15 21 1026.1 - 1.0 - - - - - - -
02/08:30pm 8.1 SSW 16 22 1025.9 - 1.0 - - - - - - -
02/08:00pm 8.5 SW 14 19 1025.6 - 1.0 - - - - - - -
02/07:30pm 9.0 SW 18 23 1025.4 - 1.0 - - - - - - -
02/07:00pm 9.1 SW 12 16 1024.9 - 1.0 - - - - - - -
02/06:30pm 8.8 SW 16 21 1024.7 - 1.0 - - - - - - -
02/06:00pm 9.1 SW 17 24 1024.4 - 1.0 - - - - - - -
02/05:30pm 8.9 SW 16 21 1024.2 - 1.0 - - - - - - -
02/05:00pm 9.0 WSW 14 18 1023.7 - 1.0 - - - - - - -
02/04:30pm 9.0 SW 19 31 1023.8 - 1.0 - - - - - - -
02/04:25pm 9.2 SW 16 27 1023.8 - 1.0 - - - - - - -
02/04:00pm 8.3 SW 16 24 1023.4 - 1.0 - - - - - - -
02/03:43pm 11.0 SW 18 32 1023.2 - 0.8 - - - - - - -
02/03:30pm 11.1 WSW 14 19 1022.9 - 0.8 - - - - - - -
02/03:00pm 10.9 SW 20 26 1022.3 - 0.8 - - - - - - -
02/02:30pm 11.3 SW 21 27 1021.8 - 0.8 - - - - - - -
02/02:00pm 11.5 SW 19 27 1021.5 - 0.8 - - - - - - -
02/01:30pm 10.1 SW 21 31 1021.2 - 0.8 - - - - - - -
02/01:00pm 10.7 SW 21 28 1020.8 - 0.8 - - - - - - -
02/12:30pm 10.1 SW 22 28 1020.4 - 0.8 - - - - - - -
02/12:02pm 9.8 SW 20 32 1020.1 - 0.8 - - - - - - -
02/12:00pm 9.9 SW 18 27 1020.1 - 0.8 - - - - - - -
02/11:30am 9.2 WSW 15 20 1019.8 - 0.8 - - - - - - -
02/11:00am 7.8 SW 26 37 1019.9 - 0.8 - - - - - - -
02/10:46am 8.7 WSW 28 41 1019.6 - 0.6 - - - - - - -
02/10:30am 9.3 WSW 20 31 1019.0 - 0.6 - - - - - - -
02/10:13am 8.5 WSW 15 27 1018.6 - 0.6 - - - - - - -
02/10:00am 7.7 WSW 14 19 1018.2 - 0.6 - - - - - - -
02/09:47am 6.7 SW 17 28 1017.8 - 0.6 - - - - - - -
02/09:40am 6.7 SW 26 40 1018.3 - 0.6 - - - - - - -
02/09:30am 7.4 SW 31 42 1018.4 - 0.4 - - - - - - -
02/09:07am 8.2 WSW 22 36 1017.7 - 0.0 - - - - - - -
02/09:00am 8.3 WSW 22 31 1017.8 - 7.6 Recent precip. - - - - - -
02/08:30am 8.4 W 25 38 1017.2 - 7.4 - - - - - - -
02/08:28am 9.5 W 21 38 1017.1 - 7.0 - - - - - - -
02/08:24am 9.3 W 16 27 1016.9 - 7.0 - - - - - - -
02/08:00am 8.0 W 19 27 1016.8 - 7.0 - - - - - - -
02/07:52am 8.7 W 15 27 1016.8 - 6.8 - - - - - - -
02/07:30am 8.5 W 13 18 1016.4 - 6.4 - - - - - - -
02/07:00am 8.2 W 16 29 1016.1 - 6.2 - - - - - - -
02/06:58am 8.6 W 15 29 1016.3 - 6.2 - - - - - - -
02/06:30am 8.9 WSW 15 20 1015.9 - 5.8 - - - - - - -
02/06:10am 9.1 W 14 23 1016.1 - 4.8 - - - - - - -
02/06:00am 9.1 W 11 16 1015.5 - 4.8 - - - - - - -
02/05:30am 9.4 W 19 27 1015.5 - 4.8 - - - - - - -
02/05:00am 10.0 WSW 13 19 1015.6 - 4.8 - - - - - - -
02/04:30am 10.1 W 11 14 1015.4 - 4.8 - - - - - - -
02/04:00am 10.0 WNW 11 14 1015.4 - 4.6 - - - - - - -
02/03:30am 9.9 W 18 23 1015.8 - 3.8 - - - - - - -
02/03:09am 10.0 WNW 20 32 1016.0 - 1.4 - - - - - - -
02/03:04am 10.2 WNW 21 32 1015.2 - 0.8 - - - - - - -
02/03:00am 10.4 WNW 22 31 1015.2 - 0.6 Rain - - - - - -
02/02:35am 10.7 NW 21 32 1014.9 - 0.0 - - - - - - -
02/02:30am 10.6 NW 21 29 1014.9 - 0.0 - - - - - - -
02/02:00am 10.9 NW 22 32 1014.9 - 0.0 - - - - - - -
02/01:30am 11.5 NW 22 32 1014.9 - 0.0 - - - - - - -
02/01:14am 11.8 NW 25 35 1015.0 - 0.0 - - - - - - -
02/01:00am 11.6 NW 20 28 1015.5 - 0.0 - - - - - - -
02/12:33am 11.5 NW 22 34 1015.8 - 0.0 - - - - - - -
02/12:30am 11.5 NW 22 30 1015.9 - 0.0 - - - - - - -
02/12:00am 11.0 NW 23 33 1016.3 - 0.0 - - - - - - -
 
Date/Time
EST
Temp

°C
Wind Pressure Rain
since 9am
mm
Weather Cloud Vis
km
Sea
Height
m
Swell
Dir
 
Speed
knots
Gust
knots
hPa Trend Height
m
Period
s
Dir
01/11:50pm 11.1 NW 22 32 1016.4 - 0.0 - - - - - - -
01/11:30pm 11.3 NW 24 30 1016.5 - 0.0 - - - - - - -
01/11:08pm 10.9 NW 23 33 1016.8 - 0.0 - - - - - - -
01/11:00pm 11.0 NW 22 32 1016.9 - 0.0 - - - - - - -
01/10:30pm 10.8 NW 22 33 1017.0 - 0.0 - - - - - - -
01/10:03pm 11.0 NW 23 34 1017.3 - 0.0 - - - - - - -
01/10:00pm 11.0 NW 22 29 1017.4 - 0.0 - - - - - - -
01/09:30pm 10.5 NW 18 25 1018.0 - 0.0 - - - - - - -
01/09:00pm 10.8 NW 17 22 1018.5 - 0.0 - - - - - - -
01/08:30pm 10.4 NW 17 25 1018.7 - 0.0 - - - - - - -
01/08:00pm 10.7 NW 17 24 1019.1 - 0.0 - - - - - - -
01/07:30pm 10.7 NW 15 21 1019.3 - 0.0 - - - - - - -
01/07:00pm 10.8 NW 12 15 1019.5 - 0.0 - - - - - - -
01/06:30pm 10.4 NW 12 16 1019.7 - 0.0 - - - - - - -
01/06:00pm 10.7 NW 12 17 1019.8 - 0.0 - - - - - - -
01/05:30pm 10.1 NW 12 20 1020.2 - 0.0 - - - - - - -
01/05:00pm 10.4 NW 13 19 1020.4 - 0.0 - - - - - - -
01/04:30pm 11.6 NW 14 18 1020.7 - 0.0 - - - - - - -
01/04:00pm 11.3 NW 11 16 1020.9 - 0.0 - - - - - - -
01/03:30pm 12.5 NW 14 21 1021.3 - 0.0 - - - - - - -
01/03:00pm 12.8 WNW 16 26 1021.6 - 0.0 - - - - - - -
01/02:45pm 12.8 NW 17 27 1021.6 - 0.0 - - - - - - -
01/02:30pm 13.0 NW 17 22 1021.6 - 0.0 - - - - - - -
01/02:00pm 12.3 NW 16 22 1022.0 - 0.0 - - - - - - -
01/01:30pm 13.0 NW 17 21 1022.5 - 0.0 - - - - - - -
01/01:00pm 12.5 NW 19 27 1022.9 - 0.0 - - - - - - -
01/12:30pm 13.0 NW 17 24 1023.3 - 0.0 - - - - - - -
01/12:00pm 12.7 NW 17 25 1023.6 - 0.0 - - - - - - -
01/11:30am 12.5 NW 14 19 1024.7 - 0.0 - - - - - - -
01/11:00am 12.4 NW 13 18 1025.5 - 0.0 - - - - - - -
01/10:30am 11.5 NW 13 19 1025.9 - 0.0 - - - - - - -
01/10:00am 11.0 NW 12 17 1026.0 - 0.0 - - - - - - -
01/09:30am 10.3 NW 10 16 1026.2 - 0.0 - - - - - - -
01/09:00am 9.9 NW 10 13 1026.2 - 1.6 - - - - - - -
01/08:30am 9.7 NW 10 14 1026.1 - 1.6 - - - - - - -
01/08:00am 9.5 NW 9 12 1026.0 - 1.6 - - - - - - -
01/07:30am 9.3 NW 8 10 1026.1 - 1.6 - - - - - - -
01/07:00am 9.1 NW 7 10 1025.9 - 1.6 - - - - - - -
01/06:30am 8.1 NW 4 5 1026.0 - 1.6 - - - - - - -
01/06:00am 8.9 WNW 5 7 1026.0 - 1.6 Recent precip. - - - - - -
01/05:30am 9.5 W 7 10 1025.9 - 1.6 - - - - - - -
01/05:00am 9.5 WNW 6 8 1026.1 - 1.4 - - - - - - -
01/04:30am 9.3 W 5 8 1026.0 - 1.2 - - - - - - -
01/04:00am 9.3 WNW 4 6 1026.0 - 1.2 - - - - - - -
01/03:30am 9.4 WNW 6 8 1026.2 - 1.2 - - - - - - -
01/03:00am 9.5 WNW 6 9 1026.3 - 0.8 Rain - - - - - -
01/02:30am 9.4 NW 9 12 1026.4 - 0.4 - - - - - - -
01/02:00am 9.3 WNW 8 10 1026.6 - 0.2 - - - - - - -
01/01:30am 9.0 NW 8 10 1026.6 - 0.2 - - - - - - -
01/01:00am 9.1 NW 7 11 1026.8 - 0.2 - - - - - - -
01/12:30am 8.9 NW 8 10 1027.1 - 0.2 - - - - - - -
01/12:00am 8.7 NW 6 8 1027.2 - 0.2 - - - - - - -

Other Formats:

Comma delimited format used in spreadsheet applications
http://www.bom.gov.au/fwo/IDV60701/IDV60701.94911.axf

JavaScript Object Notation format (JSON) in row-major order
http://www.bom.gov.au/fwo/IDV60701/IDV60701.94911.json